Impacts METAR Board INFO
IDs:

KLAS - Las Vegas/McCarran I, NV, US

Updated at: 0102 UTC 19 Nov 2017
Potential Impact None Slight Moderate High
Time18/13Z 18/14Z 18/15Z 18/16Z 18/17Z 18/18Z 18/19Z 18/20Z 18/21Z 18/22Z 18/23Z 19/00Z 19/01Z
VIS10 10 10 10 10 10 10 10 10 10 10 10 10
CIG-- -- -- -- -- -- -- -- -- -- -- -- --
CoverCLRCLRCLRCLRCLRCLRCLRCLRCLRCLRCLRCLRFEW
FltCatVFRVFRVFRVFRVFRVFRVFRVFRVFRVFRVFRVFRVFR
WX--------------------------
WDir101020150020403030503502010
WSpd11 9 4 6 4 6 4 5 5 7 3 3 3
WGst-- -- -- -- -- -- -- -- -- -- -- -- --
Raw hourly METARs
KLAS 181256Z 01011KT 10SM CLR 09/M09 A3031 RMK AO2 SLP256 T00941089
KLAS 181356Z 01009KT 10SM CLR 09/M09 A3033 RMK AO2 SLP263 T00891089
KLAS 181456Z 02004KT 10SM CLR 09/M08 A3035 RMK AO2 SLP272 T00891083 53018
KLAS 181556Z 15006KT 10SM CLR 10/M08 A3037 RMK AO2 SLP278 T01001083
KLAS 181656Z VRB04KT 10SM CLR 11/M09 A3038 RMK AO2 SLP282 T01111094
KLAS 181756Z 02006KT 10SM CLR 13/M11 A3038 RMK AO2 SLP282 T01281106 10128 20089 51008
KLAS 181856Z 04004KT 10SM CLR 13/M11 A3036 RMK AO2 SLP275 T01331106
KLAS 181956Z 03005KT 10SM CLR 14/M11 A3032 RMK AO2 SLP262 T01441111
KLAS 182056Z 03005KT 10SM CLR 15/M12 A3029 RMK AO2 SLP249 T01501117 58030
KLAS 182156Z 05007KT 10SM CLR 16/M12 A3026 RMK AO2 SLP239 T01561122
KLAS 182256Z 35003KT 10SM CLR 16/M12 A3023 RMK AO2 SLP231 T01611122
KLAS 182356Z 02003KT 10SM CLR 16/M13 A3023 RMK AO2 SLP232 T01561128 10167 20122 56018
KLAS 190056Z 01003KT 10SM FEW250 14/M12 A3023 RMK AO2 SLP232 T01441122